createdAt,value
2023-01-15T15:21:49.396Z,4.04
2023-01-15T15:24:32.463Z,3.97
2023-01-15T15:27:15.528Z,3.98
2023-01-15T15:29:42.494Z,3.90
2023-01-15T15:32:15.462Z,3.89
2023-01-15T15:34:48.398Z,3.89
2023-01-15T15:37:25.047Z,3.93
2023-01-15T15:40:13.110Z,3.87
2023-01-15T15:43:07.359Z,3.77
2023-01-15T15:45:53.208Z,3.77
2023-01-15T15:48:45.670Z,3.74
2023-01-15T15:51:15.576Z,3.79
2023-01-15T15:53:42.276Z,3.79
2023-01-15T15:56:09.643Z,3.89
2023-01-15T15:58:39.568Z,3.90
2023-01-15T16:01:11.273Z,3.99
2023-01-15T16:03:46.508Z,3.93
2023-01-15T16:06:15.560Z,3.85
2023-01-15T16:08:53.852Z,3.87
2023-01-15T16:11:23.990Z,3.85
2023-01-15T16:13:53.835Z,3.84
2023-01-15T16:16:21.836Z,3.77
2023-01-15T16:19:01.652Z,3.87
2023-01-15T16:21:32.410Z,3.89
2023-01-15T16:24:04.511Z,3.93
2023-01-15T16:26:35.972Z,4.04
2023-01-15T16:29:15.459Z,4.10
2023-01-15T16:31:42.187Z,4.07
2023-01-15T16:34:14.575Z,4.08
2023-01-15T16:36:45.483Z,4.04
2023-01-15T16:39:14.681Z,4.11
2023-01-15T16:41:42.579Z,3.95
2023-01-15T16:44:14.551Z,4.06
2023-01-15T16:46:55.738Z,4.08
2023-01-15T16:49:22.783Z,4.09
2023-01-15T16:51:51.115Z,4.07
2023-01-15T16:54:30.060Z,4.13
2023-01-15T16:57:02.196Z,4.11
2023-01-15T16:59:31.861Z,4.08
2023-01-15T17:02:15.696Z,4.14
2023-01-15T17:04:46.431Z,4.20
2023-01-15T17:07:15.571Z,4.24
2023-01-15T17:09:51.764Z,4.13
2023-01-15T17:12:42.151Z,4.12
2023-01-15T17:15:14.577Z,4.04
2023-01-15T17:17:42.194Z,3.96
2023-01-15T17:20:10.613Z,3.97
2023-01-15T17:22:37.603Z,4.01
2023-01-15T17:25:14.568Z,3.86
2023-01-15T17:27:41.187Z,3.83
2023-01-15T17:30:12.636Z,3.87
2023-01-15T17:32:41.599Z,3.89
2023-01-15T17:35:14.664Z,3.89
2023-01-15T17:37:41.474Z,4.00
2023-01-15T17:40:09.179Z,4.00
2023-01-15T17:42:35.943Z,4.06
2023-01-15T17:45:02.610Z,4.17
2023-01-15T17:47:29.618Z,4.10
2023-01-15T17:49:56.323Z,4.07
2023-01-15T17:52:23.230Z,3.92
2023-01-15T17:55:08.320Z,4.06
2023-01-15T17:57:53.964Z,4.01
2023-01-15T18:00:39.891Z,4.10
2023-01-15T18:03:16.614Z,4.20
2023-01-15T18:05:45.920Z,4.15
2023-01-15T18:08:12.865Z,4.23
2023-01-15T18:10:40.007Z,4.12
2023-01-15T18:13:08.362Z,4.14
2023-01-15T18:15:35.174Z,4.32
2023-01-15T18:20:14.210Z,4.28
2023-01-15T18:22:41.079Z,4.34
2023-01-15T18:25:10.917Z,4.29
2023-01-15T18:27:38.628Z,4.31
2023-01-15T18:30:06.059Z,4.36
2023-01-15T18:32:33.537Z,4.35
2023-01-15T18:35:00.720Z,4.38
2023-01-15T18:37:27.569Z,4.34
2023-01-15T18:39:54.440Z,4.33
2023-01-15T18:42:38.644Z,4.47
2023-01-15T18:45:24.785Z,4.47
2023-01-15T18:47:51.556Z,4.43
2023-01-15T18:50:18.643Z,4.44
2023-01-15T18:52:54.629Z,4.50
2023-01-15T18:55:26.222Z,4.55
2023-01-15T18:57:57.048Z,4.47
2023-01-15T19:00:25.081Z,4.49
2023-01-15T19:02:52.081Z,4.45
2023-01-15T19:05:19.182Z,4.50
2023-01-15T19:07:48.188Z,4.52
2023-01-15T19:10:17.555Z,4.51
2023-01-15T19:12:45.191Z,4.43
2023-01-15T19:18:23.074Z,4.43
2023-01-15T19:20:50.119Z,4.21
2023-01-15T19:23:17.399Z,4.18
2023-01-15T19:25:49.590Z,4.24
2023-01-15T19:28:19.445Z,4.18
2023-01-15T19:31:07.195Z,4.04
2023-01-15T19:33:34.652Z,3.96
2023-01-15T19:36:01.706Z,3.94
2023-01-15T19:38:28.328Z,3.91
2023-01-15T19:41:15.280Z,3.88
2023-01-15T19:44:00.561Z,3.88
2023-01-15T19:46:38.692Z,3.91
2023-01-15T19:49:28.214Z,3.96
2023-01-15T19:52:13.585Z,3.81
2023-01-15T19:54:59.890Z,3.78
2023-01-15T19:57:26.850Z,3.83
2023-01-15T19:59:53.603Z,3.74
2023-01-15T20:02:20.365Z,3.79
2023-01-15T20:04:48.749Z,3.78
2023-01-15T20:07:16.126Z,3.74
2023-01-15T20:09:44.040Z,3.71
2023-01-15T20:12:30.517Z,3.72
2023-01-15T20:14:57.458Z,3.62
2023-01-15T20:17:24.731Z,3.65
2023-01-15T20:19:51.644Z,3.63
2023-01-15T20:22:18.506Z,3.53
2023-01-15T20:24:45.376Z,3.54
2023-01-15T20:27:13.882Z,3.56
2023-01-15T20:29:42.382Z,3.55
2023-01-15T20:32:09.477Z,3.46
2023-01-15T20:37:03.079Z,3.48
2023-01-15T20:39:31.737Z,3.42
2023-01-15T20:42:17.689Z,3.46
2023-01-15T20:44:53.328Z,3.37
2023-01-15T20:47:38.679Z,3.43
2023-01-15T20:50:06.093Z,3.48
2023-01-15T20:52:32.772Z,3.53
2023-01-15T20:55:00.227Z,3.40
2023-01-15T20:57:26.935Z,3.33
2023-01-15T20:59:53.668Z,3.43
2023-01-15T21:02:20.429Z,3.33
2023-01-15T21:04:47.104Z,3.37
2023-01-15T21:07:13.936Z,3.39
2023-01-15T21:09:40.675Z,3.27
2023-01-15T21:12:07.443Z,3.28
2023-01-15T21:14:34.270Z,3.35
2023-01-15T21:17:01.031Z,3.37
2023-01-15T21:19:27.772Z,3.33
2023-01-15T21:21:54.562Z,3.26
2023-01-15T21:24:21.249Z,3.28
2023-01-15T21:26:48.909Z,3.17
2023-01-15T21:29:15.967Z,3.08
2023-01-15T21:31:47.141Z,3.29
2023-01-15T21:34:14.154Z,3.11
2023-01-15T21:36:40.911Z,3.02
2023-01-15T21:39:07.660Z,3.02
2023-01-15T21:41:38.730Z,2.79
2023-01-15T21:44:25.759Z,2.76
2023-01-15T21:46:52.567Z,2.67
2023-01-15T21:49:19.218Z,2.55
2023-01-15T21:51:45.976Z,2.64
2023-01-15T21:54:13.729Z,2.45
2023-01-15T21:56:40.876Z,2.45
2023-01-15T21:59:14.461Z,2.39
2023-01-15T22:01:41.801Z,2.40
2023-01-15T22:04:08.570Z,2.37
2023-01-15T22:06:37.241Z,2.43
2023-01-15T22:09:03.184Z,2.41
2023-01-15T22:11:38.699Z,2.27
2023-01-15T22:14:05.373Z,2.32
2023-01-15T22:16:32.308Z,2.28
2023-01-15T22:18:59.189Z,2.25
2023-01-15T22:21:25.917Z,2.34
2023-01-15T22:23:52.701Z,2.42
2023-01-15T22:26:21.183Z,2.36
2023-01-15T22:28:48.941Z,2.32
2023-01-15T22:31:17.972Z,2.35
2023-01-15T22:33:46.087Z,2.38
2023-01-15T22:36:14.240Z,2.42
2023-01-15T22:38:41.537Z,2.54
2023-01-15T22:41:08.739Z,2.44
2023-01-15T22:43:36.077Z,2.49
2023-01-15T22:46:11.535Z,2.46
2023-01-15T22:48:38.640Z,2.48
2023-01-15T22:51:05.957Z,2.50
2023-01-15T22:53:36.180Z,2.50
2023-01-15T22:56:03.841Z,2.56
2023-01-15T22:58:30.476Z,2.65
2023-01-15T23:00:57.971Z,2.58
2023-01-15T23:03:24.789Z,2.55
2023-01-15T23:05:51.496Z,2.47
2023-01-15T23:08:18.261Z,2.43
2023-01-15T23:10:46.435Z,2.41
2023-01-15T23:13:13.485Z,2.36
2023-01-15T23:15:40.318Z,2.40
2023-01-15T23:18:07.316Z,2.43
2023-01-15T23:20:34.018Z,2.49
2023-01-15T23:23:00.759Z,2.49
2023-01-15T23:25:27.398Z,2.65
2023-01-15T23:27:54.180Z,2.77
2023-01-15T23:30:20.845Z,2.72
2023-01-15T23:32:47.623Z,2.78
2023-01-15T23:35:14.358Z,2.68
2023-01-15T23:37:41.019Z,2.68
2023-01-15T23:40:08.634Z,2.77
2023-01-15T23:42:38.764Z,2.79
2023-01-15T23:45:24.669Z,2.88
2023-01-15T23:47:51.325Z,2.90
2023-01-15T23:50:18.241Z,2.87
2023-01-15T23:52:44.895Z,2.93
2023-01-15T23:55:11.605Z,2.87
2023-01-15T23:57:38.796Z,2.90
